Time,TemperatureF,DewpointF,PressureIn,WindDirection,WindDirectionDegrees,WindSpeedMPH,WindSpeedGustMPH,Humidity,HourlyPrecipIn,Conditions,Clouds,dailyrainin,SoftwareType,DateUTC
2013-02-19 00:02:00,20.0,4.0,30.09,WNW,282,2.0,9.0,50,0.00,,,0.00,,2013-02-19 05:02:00,
2013-02-19 00:13:00,20.0,4.0,30.09,WNW,282,2.0,9.0,50,0.00,,,0.00,,2013-02-19 05:13:00,
2013-02-19 00:22:00,20.0,4.0,30.09,WNW,282,2.0,9.0,50,0.00,,,0.00,,2013-02-19 05:22:00,
2013-02-19 00:32:00,21.0,5.0,30.10,SW,236,2.0,3.0,49,0.00,,,0.00,,2013-02-19 05:32:00,
2013-02-19 00:43:00,21.0,5.0,30.10,SW,236,2.0,3.0,49,0.00,,,0.00,,2013-02-19 05:43:00,
2013-02-19 00:52:00,21.0,5.0,30.10,SW,236,2.0,3.0,49,0.00,,,0.00,,2013-02-19 05:52:00,
2013-02-19 01:03:00,21.0,6.0,30.09,WSW,244,2.0,3.0,51,0.00,,,0.00,,2013-02-19 06:03:00,
2013-02-19 01:12:00,21.0,6.0,30.09,WSW,244,2.0,3.0,51,0.00,,,0.00,,2013-02-19 06:12:00,
2013-02-19 01:22:00,21.0,6.0,30.09,WSW,244,2.0,3.0,51,0.00,,,0.00,,2013-02-19 06:22:00,
2013-02-19 01:33:00,22.0,6.0,30.10,SW,225,3.0,7.0,50,0.00,,,0.00,,2013-02-19 06:33:00,
2013-02-19 01:42:00,22.0,6.0,30.10,SW,225,3.0,7.0,50,0.00,,,0.00,,2013-02-19 06:42:00,
2013-02-19 01:53:00,22.0,6.0,30.10,SW,225,3.0,7.0,50,0.00,,,0.00,,2013-02-19 06:53:00,
2013-02-19 02:02:00,22.0,6.0,30.10,SW,225,3.0,7.0,50,0.00,,,0.00,,2013-02-19 07:02:00,
2013-02-19 03:02:00,22.0,8.0,30.09,SW,230,1.0,3.0,54,0.00,,,0.00,,2013-02-19 08:02:00,
2013-02-19 03:11:00,22.0,8.0,30.09,SW,230,1.0,3.0,54,0.00,,,0.00,,2013-02-19 08:11:00,
2013-02-19 03:22:00,22.0,8.0,30.09,SW,230,1.0,3.0,54,0.00,,,0.00,,2013-02-19 08:22:00,
2013-02-19 03:32:00,22.0,9.0,30.06,SE,143,0.0,2.0,56,0.00,,,0.00,,2013-02-19 08:32:00,
2013-02-19 03:42:00,22.0,9.0,30.06,SE,143,0.0,2.0,56,0.00,,,0.00,,2013-02-19 08:42:00,
2013-02-19 03:52:00,22.0,9.0,30.06,SE,143,0.0,2.0,56,0.00,,,0.00,,2013-02-19 08:52:00,
2013-02-19 04:02:00,22.0,9.0,30.06,SE,143,0.0,2.0,56,0.00,,,0.00,,2013-02-19 09:02:00,
2013-02-19 04:11:00,22.0,9.0,30.06,SE,143,0.0,2.0,56,0.00,,,0.00,,2013-02-19 09:11:00,
2013-02-19 04:32:00,25.0,12.0,30.05,SSW,202,0.0,1.0,58,0.00,,,0.00,,2013-02-19 09:32:00,
2013-02-19 04:42:00,25.0,12.0,30.05,SSW,202,0.0,1.0,58,0.00,,,0.00,,2013-02-19 09:42:00,
2013-02-19 04:53:00,25.0,12.0,30.05,SSW,202,0.0,1.0,58,0.00,,,0.00,,2013-02-19 09:53:00,
2013-02-19 05:02:00,24.0,11.0,30.06,SSW,202,0.0,1.0,58,0.00,,,0.00,,2013-02-19 10:02:00,
2013-02-19 05:11:00,24.0,11.0,30.06,SSW,202,0.0,1.0,58,0.00,,,0.00,,2013-02-19 10:11:00,
2013-02-19 05:22:00,24.0,11.0,30.06,SSW,202,0.0,1.0,58,0.00,,,0.00,,2013-02-19 10:22:00,
2013-02-19 05:32:00,24.0,11.0,30.06,SSW,202,0.0,1.0,58,0.00,,,0.00,,2013-02-19 10:32:00,
2013-02-19 05:42:00,24.0,11.0,30.06,SSW,202,0.0,1.0,58,0.00,,,0.00,,2013-02-19 10:42:00,
2013-02-19 06:01:00,23.0,12.0,30.05,East,100,0.0,0.0,62,0.00,,,0.00,,2013-02-19 11:01:00,
2013-02-19 06:11:00,23.0,12.0,30.05,East,100,0.0,0.0,62,0.00,,,0.00,,2013-02-19 11:11:00,
2013-02-19 06:22:00,23.0,12.0,30.05,East,100,0.0,0.0,62,0.00,,,0.00,,2013-02-19 11:22:00,
2013-02-19 06:32:00,23.0,12.0,30.05,East,100,0.0,0.0,62,0.00,,,0.00,,2013-02-19 11:32:00,
2013-02-19 07:33:00,20.0,10.0,30.04,WNW,292,0.0,0.0,65,0.00,,,0.00,,2013-02-19 12:33:00,
2013-02-19 07:42:00,20.0,10.0,30.04,WNW,292,0.0,0.0,65,0.00,,,0.00,,2013-02-19 12:42:00,
2013-02-19 07:53:00,20.0,10.0,30.04,WNW,292,0.0,0.0,65,0.00,,,0.00,,2013-02-19 12:53:00,
2013-02-19 08:02:00,21.0,12.0,30.03,ENE,68,0.0,0.0,67,0.00,,,0.00,,2013-02-19 13:02:00,
2013-02-19 08:11:00,21.0,12.0,30.03,ENE,68,0.0,0.0,67,0.00,,,0.00,,2013-02-19 13:11:00,
2013-02-19 08:22:00,21.0,12.0,30.03,ENE,68,0.0,0.0,67,0.00,,,0.00,,2013-02-19 13:22:00,
2013-02-19 08:32:00,22.0,13.0,30.03,ENE,68,0.0,0.0,67,0.00,,,0.00,,2013-02-19 13:32:00,
2013-02-19 08:42:00,22.0,13.0,30.03,ENE,68,0.0,0.0,67,0.00,,,0.00,,2013-02-19 13:42:00,
2013-02-19 08:52:00,22.0,13.0,30.03,ENE,68,0.0,0.0,67,0.00,,,0.00,,2013-02-19 13:52:00,
2013-02-19 09:02:00,27.0,16.0,30.07,East,90,0.0,1.0,64,0.00,,,0.00,,2013-02-19 14:02:00,
2013-02-19 09:12:00,27.0,16.0,30.07,East,90,0.0,1.0,64,0.00,,,0.00,,2013-02-19 14:12:00,
2013-02-19 09:22:00,27.0,16.0,30.07,East,90,0.0,1.0,64,0.00,,,0.00,,2013-02-19 14:22:00,
2013-02-19 09:33:00,31.0,21.0,30.08,SSW,195,1.0,6.0,66,0.00,,,0.00,,2013-02-19 14:33:00,
2013-02-19 09:42:00,31.0,21.0,30.08,SSW,195,1.0,6.0,66,0.00,,,0.00,,2013-02-19 14:42:00,
2013-02-19 09:52:00,31.0,21.0,30.08,SSW,195,1.0,6.0,66,0.00,,,0.00,,2013-02-19 14:52:00,
2013-02-19 10:02:00,35.0,24.0,30.07,SSE,149,2.0,3.0,65,0.00,,,0.00,,2013-02-19 15:02:00,
2013-02-19 10:11:00,35.0,24.0,30.07,SSE,149,2.0,3.0,65,0.00,,,0.00,,2013-02-19 15:11:00,
2013-02-19 10:22:00,35.0,24.0,30.07,SSE,149,2.0,3.0,65,0.00,,,0.00,,2013-02-19 15:22:00,
2013-02-19 10:32:00,39.0,27.0,30.07,SSW,212,2.0,7.0,62,0.00,,,0.00,,2013-02-19 15:32:00,
2013-02-19 10:42:00,39.0,27.0,30.07,SSW,212,2.0,7.0,62,0.00,,,0.00,,2013-02-19 15:42:00,
2013-02-19 10:52:00,39.0,27.0,30.07,SSW,212,2.0,7.0,62,0.00,,,0.00,,2013-02-19 15:52:00,
2013-02-19 11:02:00,39.0,27.0,30.07,SSW,212,2.0,7.0,62,0.00,,,0.00,,2013-02-19 16:02:00,
2013-02-19 11:11:00,39.0,27.0,30.07,SSW,212,2.0,7.0,62,0.00,,,0.00,,2013-02-19 16:11:00,
2013-02-19 11:32:00,42.0,28.0,30.04,NW,309,2.0,7.0,58,0.00,,,0.00,,2013-02-19 16:32:00,
2013-02-19 11:42:00,42.0,28.0,30.04,NW,309,2.0,7.0,58,0.00,,,0.00,,2013-02-19 16:42:00,
2013-02-19 11:52:00,42.0,28.0,30.04,NW,309,2.0,7.0,58,0.00,,,0.00,,2013-02-19 16:52:00,
2013-02-19 12:01:00,44.0,29.0,30.03,SW,225,2.0,5.0,56,0.00,,,0.00,,2013-02-19 17:01:00,
2013-02-19 12:11:00,44.0,29.0,30.03,SW,225,2.0,5.0,56,0.00,,,0.00,,2013-02-19 17:11:00,
2013-02-19 12:21:00,44.0,29.0,30.03,SW,225,2.0,5.0,56,0.00,,,0.00,,2013-02-19 17:21:00,
2013-02-19 12:32:00,44.0,29.0,30.00,South,179,2.0,8.0,56,0.00,,,0.00,,2013-02-19 17:32:00,
2013-02-19 12:42:00,44.0,29.0,30.00,South,179,2.0,8.0,56,0.00,,,0.00,,2013-02-19 17:42:00,
2013-02-19 12:52:00,44.0,29.0,30.00,South,179,2.0,8.0,56,0.00,,,0.00,,2013-02-19 17:52:00,
2013-02-19 13:02:00,44.0,30.0,29.98,SE,135,3.0,12.0,57,0.00,,,0.00,,2013-02-19 18:02:00,
2013-02-19 13:11:00,44.0,30.0,29.98,SE,135,3.0,12.0,57,0.00,,,0.00,,2013-02-19 18:11:00,
2013-02-19 13:21:00,44.0,30.0,29.98,SE,135,3.0,12.0,57,0.00,,,0.00,,2013-02-19 18:21:00,
2013-02-19 13:32:00,44.0,30.0,29.97,SSE,166,3.0,9.0,58,0.00,,,0.00,,2013-02-19 18:32:00,
2013-02-19 13:42:00,44.0,30.0,29.97,SSE,166,3.0,9.0,58,0.00,,,0.00,,2013-02-19 18:42:00,
2013-02-19 13:52:00,44.0,30.0,29.97,SSE,166,3.0,9.0,58,0.00,,,0.00,,2013-02-19 18:52:00,
2013-02-19 14:01:00,44.0,30.0,29.97,SSE,166,3.0,9.0,58,0.00,,,0.00,,2013-02-19 19:01:00,
2013-02-19 14:32:00,44.0,31.0,29.93,SSW,196,2.0,7.0,60,0.00,,,0.00,,2013-02-19 19:32:00,
2013-02-19 14:42:00,44.0,31.0,29.93,SSW,196,2.0,7.0,60,0.00,,,0.00,,2013-02-19 19:42:00,
2013-02-19 14:52:00,44.0,31.0,29.93,SSW,196,2.0,7.0,60,0.00,,,0.00,,2013-02-19 19:52:00,
2013-02-19 15:02:00,44.0,32.0,29.92,South,185,5.0,9.0,62,0.00,,,0.00,,2013-02-19 20:02:00,
2013-02-19 15:12:00,44.0,32.0,29.92,South,185,5.0,9.0,62,0.00,,,0.00,,2013-02-19 20:12:00,
2013-02-19 15:22:00,44.0,32.0,29.92,South,185,5.0,9.0,62,0.00,,,0.00,,2013-02-19 20:22:00,
2013-02-19 15:32:00,44.0,33.0,29.89,South,182,2.0,3.0,64,0.00,,,0.00,,2013-02-19 20:32:00,
2013-02-19 15:42:00,44.0,33.0,29.89,South,182,2.0,3.0,64,0.00,,,0.00,,2013-02-19 20:42:00,
2013-02-19 15:52:00,44.0,33.0,29.89,South,182,2.0,3.0,64,0.00,,,0.00,,2013-02-19 20:52:00,
2013-02-19 16:02:00,42.0,33.0,29.85,South,189,2.0,6.0,70,0.00,,,0.00,,2013-02-19 21:02:00,
2013-02-19 16:11:00,42.0,33.0,29.85,South,189,2.0,6.0,70,0.00,,,0.00,,2013-02-19 21:11:00,
2013-02-19 16:21:00,42.0,33.0,29.85,South,189,2.0,6.0,70,0.00,,,0.00,,2013-02-19 21:21:00,
2013-02-19 16:32:00,39.0,34.0,29.72,SSE,168,2.0,6.0,81,0.01,,,0.01,,2013-02-19 21:32:00,
2013-02-19 16:42:00,39.0,34.0,29.72,SSE,168,2.0,6.0,81,0.01,,,0.01,,2013-02-19 21:42:00,
2013-02-19 16:52:00,39.0,34.0,29.72,SSE,168,2.0,6.0,81,0.01,,,0.01,,2013-02-19 21:52:00,
2013-02-19 17:02:00,39.0,34.0,29.79,SW,235,2.0,5.0,82,0.01,,,0.01,,2013-02-19 22:02:00,
2013-02-19 17:11:00,39.0,34.0,29.79,SW,235,2.0,5.0,82,0.01,,,0.01,,2013-02-19 22:11:00,
2013-02-19 17:22:00,39.0,34.0,29.79,SW,235,2.0,5.0,82,0.01,,,0.01,,2013-02-19 22:22:00,
2013-02-19 17:32:00,39.0,34.0,29.76,ESE,114,1.0,2.0,82,0.00,,,0.01,,2013-02-19 22:32:00,
2013-02-19 17:42:00,39.0,34.0,29.76,ESE,114,1.0,2.0,82,0.00,,,0.01,,2013-02-19 22:42:00,
2013-02-19 17:52:00,39.0,34.0,29.76,ESE,114,1.0,2.0,82,0.00,,,0.01,,2013-02-19 22:52:00,
2013-02-19 18:01:00,39.0,34.0,29.75,SSE,166,1.0,5.0,82,0.00,,,0.01,,2013-02-19 23:01:00,
2013-02-19 18:11:00,39.0,34.0,29.75,SSE,166,1.0,5.0,82,0.00,,,0.01,,2013-02-19 23:11:00,
2013-02-19 18:21:00,39.0,34.0,29.75,SSE,166,1.0,5.0,82,0.00,,,0.01,,2013-02-19 23:21:00,
2013-02-19 18:32:00,39.0,34.0,29.75,SSE,166,1.0,5.0,82,0.00,,,0.01,,2013-02-19 23:32:00,
2013-02-19 18:42:00,39.0,34.0,29.75,SSE,166,1.0,5.0,82,0.00,,,0.01,,2013-02-19 23:42:00,
2013-02-19 20:02:00,39.0,34.0,29.66,SW,214,1.0,3.0,82,0.03,,,0.07,,2013-02-20 01:02:00,
2013-02-19 20:11:00,39.0,34.0,29.66,SW,214,1.0,3.0,82,0.03,,,0.07,,2013-02-20 01:11:00,
2013-02-19 20:22:00,39.0,34.0,29.66,SW,214,1.0,3.0,82,0.03,,,0.07,,2013-02-20 01:22:00,
2013-02-19 20:32:00,39.0,34.0,29.64,South,180,0.0,1.0,82,0.06,,,0.11,,2013-02-20 01:32:00,
2013-02-19 20:42:00,39.0,34.0,29.64,South,180,0.0,1.0,82,0.06,,,0.11,,2013-02-20 01:42:00,
2013-02-19 20:52:00,39.0,34.0,29.64,South,180,0.0,1.0,82,0.06,,,0.11,,2013-02-20 01:52:00,
2013-02-19 21:02:00,39.0,34.0,29.63,SSW,207,0.0,1.0,82,0.06,,,0.14,,2013-02-20 02:02:00,
2013-02-19 21:11:00,39.0,34.0,29.63,SSW,207,0.0,1.0,82,0.06,,,0.14,,2013-02-20 02:11:00,
2013-02-19 21:22:00,39.0,34.0,29.63,SSW,207,0.0,1.0,82,0.06,,,0.14,,2013-02-20 02:22:00,
2013-02-19 21:32:00,39.0,34.0,29.59,East,82,0.0,1.0,82,0.04,,,0.14,,2013-02-20 02:32:00,
2013-02-19 21:42:00,39.0,34.0,29.59,East,82,0.0,1.0,82,0.04,,,0.14,,2013-02-20 02:42:00,
2013-02-19 21:52:00,39.0,34.0,29.59,East,82,0.0,1.0,82,0.04,,,0.14,,2013-02-20 02:52:00,
2013-02-19 22:02:00,39.0,34.0,29.61,SW,225,1.0,3.0,82,0.03,,,0.14,,2013-02-20 03:02:00,
2013-02-19 22:12:00,39.0,34.0,29.61,SW,225,1.0,3.0,82,0.03,,,0.14,,2013-02-20 03:12:00,
2013-02-19 22:22:00,39.0,34.0,29.61,SW,225,1.0,3.0,82,0.03,,,0.14,,2013-02-20 03:22:00,
2013-02-19 22:32:00,39.0,34.0,29.59,SW,216,1.0,5.0,82,0.01,,,0.15,,2013-02-20 03:32:00,
2013-02-19 22:42:00,39.0,34.0,29.59,SW,216,1.0,5.0,82,0.01,,,0.15,,2013-02-20 03:42:00,
2013-02-19 22:52:00,39.0,34.0,29.59,SW,216,1.0,5.0,82,0.01,,,0.15,,2013-02-20 03:52:00,
2013-02-19 23:01:00,39.0,34.0,29.59,SW,216,1.0,5.0,82,0.01,,,0.15,,2013-02-20 04:01:00,
2013-02-19 23:11:00,39.0,34.0,29.59,SW,216,1.0,5.0,82,0.01,,,0.15,,2013-02-20 04:11:00,
2013-02-19 23:32:00,39.0,34.0,29.57,NW,307,2.0,6.0,82,0.00,,,0.15,,2013-02-20 04:32:00,
2013-02-19 23:42:00,39.0,34.0,29.57,NW,307,2.0,6.0,82,0.00,,,0.15,,2013-02-20 04:42:00,
2013-02-19 23:52:00,39.0,34.0,29.57,NW,307,2.0,6.0,82,0.00,,,0.15,,2013-02-20 04:52:00,